createdAt,value
2022-11-27T00:03:02.846Z,4.53
2022-11-27T00:08:04.656Z,4.52
2022-11-27T00:13:06.208Z,4.49
2022-11-27T00:18:07.773Z,4.51
2022-11-27T00:23:09.374Z,4.44
2022-11-27T00:28:10.928Z,4.40
2022-11-27T00:33:12.541Z,4.35
2022-11-27T00:38:14.117Z,4.27
2022-11-27T00:43:16.060Z,4.24
2022-11-27T00:48:17.598Z,4.33
2022-11-27T00:53:19.159Z,4.41
2022-11-27T00:58:22.636Z,4.41
2022-11-27T01:03:25.089Z,4.33
2022-11-27T01:08:26.728Z,4.42
2022-11-27T01:13:31.308Z,4.42
2022-11-27T01:18:34.053Z,4.59
2022-11-27T01:23:35.707Z,4.52
2022-11-27T01:28:39.801Z,4.51
2022-11-27T01:33:41.638Z,4.50
2022-11-27T01:38:43.498Z,4.53
2022-11-27T01:44:12.508Z,4.48
2022-11-27T01:49:20.174Z,4.56
2022-11-27T01:54:25.289Z,4.60
2022-11-27T01:59:27.008Z,4.51
2022-11-27T02:04:28.590Z,4.59
2022-11-27T02:09:31.145Z,4.53
2022-11-27T02:15:17.140Z,4.62
2022-11-27T02:20:33.871Z,4.64
2022-11-27T02:26:03.974Z,4.71
2022-11-27T02:31:22.075Z,4.65
2022-11-27T02:36:29.958Z,4.62
2022-11-27T02:41:39.782Z,4.65
2022-11-27T02:46:42.670Z,4.62
2022-11-27T02:51:51.028Z,4.58
2022-11-27T02:56:54.821Z,4.54
2022-11-27T03:02:01.077Z,4.57
2022-11-27T03:07:09.123Z,4.62
2022-11-27T03:12:12.385Z,4.62
2022-11-27T03:17:46.795Z,4.55
2022-11-27T03:22:48.461Z,4.64
2022-11-27T03:27:58.130Z,4.66
2022-11-27T03:33:01.533Z,4.63
2022-11-27T03:38:03.469Z,4.62
2022-11-27T03:43:23.157Z,4.61
2022-11-27T03:48:38.328Z,4.59
2022-11-27T03:54:00.744Z,4.52
2022-11-27T03:59:08.711Z,4.48
2022-11-27T04:04:10.411Z,4.44
2022-11-27T04:09:12.021Z,4.41
2022-11-27T04:14:13.536Z,4.36
2022-11-27T04:19:16.560Z,4.34
2022-11-27T04:24:21.186Z,4.38
2022-11-27T04:29:22.765Z,4.39
2022-11-27T04:34:24.354Z,4.49
2022-11-27T04:39:25.945Z,4.52
2022-11-27T04:44:27.712Z,4.57
2022-11-27T04:49:29.285Z,4.56
2022-11-27T04:54:30.984Z,4.57
2022-11-27T04:59:32.898Z,4.61
2022-11-27T05:04:34.636Z,4.68
2022-11-27T05:09:36.187Z,4.62
2022-11-27T05:15:04.633Z,4.61
2022-11-27T05:20:07.094Z,4.62
2022-11-27T05:25:09.118Z,4.60
2022-11-27T05:30:10.992Z,4.60
2022-11-27T05:36:06.015Z,4.60
2022-11-27T05:41:07.616Z,4.60
2022-11-27T05:46:12.767Z,4.64
2022-11-27T05:51:15.370Z,4.54
2022-11-27T05:56:23.310Z,4.55
2022-11-27T06:01:24.916Z,4.60
2022-11-27T06:06:26.566Z,4.57
2022-11-27T06:11:28.090Z,4.62
2022-11-27T06:16:29.787Z,4.60
2022-11-27T06:21:31.688Z,4.57
2022-11-27T06:26:34.076Z,4.56
2022-11-27T06:31:36.189Z,4.60
2022-11-27T06:36:40.753Z,4.62
2022-11-27T06:41:43.510Z,4.60
2022-11-27T06:46:45.098Z,4.63
2022-11-27T06:51:46.825Z,4.63
2022-11-27T06:56:50.784Z,4.66
2022-11-27T07:01:52.448Z,4.66
2022-11-27T07:06:54.487Z,4.69
2022-11-27T07:11:56.024Z,4.71
2022-11-27T07:16:57.646Z,4.72
2022-11-27T07:21:59.358Z,4.69
2022-11-27T07:27:00.949Z,4.66
2022-11-27T07:32:04.995Z,4.70
2022-11-27T07:37:06.908Z,4.67
2022-11-27T07:42:36.934Z,4.73
2022-11-27T07:47:30.633Z,4.73
2022-11-27T07:52:35.549Z,4.80
2022-11-27T07:57:42.590Z,4.84
2022-11-27T08:02:44.208Z,4.91
2022-11-27T08:07:45.815Z,4.96
2022-11-27T08:12:47.787Z,5.00
2022-11-27T08:18:08.750Z,5.03
2022-11-27T08:23:10.307Z,5.02
2022-11-27T08:28:12.260Z,5.03
2022-11-27T08:33:13.890Z,5.10
2022-11-27T08:38:15.664Z,4.99
2022-11-27T08:43:17.466Z,5.11
2022-11-27T08:48:20.184Z,5.08
2022-11-27T08:53:21.937Z,5.08
2022-11-27T08:59:01.295Z,5.18
2022-11-27T09:04:03.005Z,5.18
2022-11-27T09:09:08.095Z,5.21
2022-11-27T09:14:11.373Z,5.23
2022-11-27T09:19:22.253Z,5.23
2022-11-27T09:24:23.793Z,5.22
2022-11-27T09:29:25.435Z,5.12
2022-11-27T09:34:27.013Z,5.07
2022-11-27T09:39:33.241Z,5.02
2022-11-27T09:44:40.104Z,5.05
2022-11-27T09:49:57.636Z,5.02
2022-11-27T09:55:23.121Z,5.03
2022-11-27T10:00:24.925Z,4.98
2022-11-27T10:05:47.395Z,5.02
2022-11-27T10:11:21.505Z,5.01
2022-11-27T10:16:28.024Z,5.05
2022-11-27T10:21:55.567Z,5.08
2022-11-27T10:26:59.564Z,5.11
2022-11-27T10:32:46.838Z,5.21
2022-11-27T10:37:41.794Z,5.22
2022-11-27T10:43:08.624Z,5.31
2022-11-27T10:48:11.404Z,5.39
2022-11-27T10:53:25.807Z,5.43
2022-11-27T10:58:45.732Z,5.47
2022-11-27T11:03:47.913Z,5.52
2022-11-27T11:09:02.708Z,5.58
2022-11-27T11:14:04.634Z,5.63
2022-11-27T11:19:22.974Z,5.70
2022-11-27T11:24:30.469Z,5.71
2022-11-27T11:29:40.810Z,5.83
2022-11-27T11:34:56.241Z,5.85
2022-11-27T11:40:21.630Z,5.93
2022-11-27T11:45:24.012Z,6.01
2022-11-27T11:50:34.151Z,6.14
2022-11-27T11:55:47.261Z,6.19
2022-11-27T12:06:45.277Z,6.29
2022-11-27T12:11:59.049Z,6.37
2022-11-27T12:17:30.376Z,6.41
2022-11-27T12:22:40.296Z,6.44
2022-11-27T12:28:21.022Z,6.48
2022-11-27T12:33:40.228Z,6.51
2022-11-27T12:38:47.880Z,6.49
2022-11-27T12:43:55.828Z,6.53
2022-11-27T12:49:06.069Z,6.51
2022-11-27T12:54:12.502Z,6.57
2022-11-27T12:59:31.516Z,6.60
2022-11-27T13:04:47.155Z,6.59
2022-11-27T13:10:24.293Z,6.48
2022-11-27T13:15:50.818Z,6.42
2022-11-27T13:20:53.359Z,6.40
2022-11-27T13:25:57.120Z,6.41
2022-11-27T13:31:00.745Z,6.35
2022-11-27T13:36:04.567Z,6.31
2022-11-27T13:41:07.195Z,6.30
2022-11-27T13:46:19.369Z,6.24
2022-11-27T13:51:28.200Z,6.21
2022-11-27T13:56:31.292Z,6.24
2022-11-27T14:01:33.166Z,6.18
2022-11-27T14:06:35.709Z,6.23
2022-11-27T14:11:44.474Z,6.19
2022-11-27T14:17:04.989Z,6.22
2022-11-27T14:22:16.473Z,6.18
2022-11-27T14:27:25.658Z,6.14
2022-11-27T14:32:35.617Z,6.14
2022-11-27T14:37:37.238Z,6.15
2022-11-27T14:42:39.374Z,6.14
2022-11-27T14:47:48.823Z,6.11
2022-11-27T14:52:56.448Z,6.15
2022-11-27T14:57:58.378Z,6.11
2022-11-27T15:03:10.644Z,6.13
2022-11-27T15:08:15.736Z,6.13
2022-11-27T15:13:24.182Z,6.11
2022-11-27T15:18:27.857Z,6.13
2022-11-27T15:23:32.199Z,6.10
2022-11-27T15:28:43.372Z,6.14
2022-11-27T15:33:57.018Z,6.08
2022-11-27T15:39:15.302Z,6.07
2022-11-27T15:44:16.805Z,6.03
2022-11-27T15:49:19.723Z,6.05
2022-11-27T15:54:21.593Z,6.06
2022-11-27T15:59:24.756Z,6.06
2022-11-27T16:04:26.550Z,6.07
2022-11-27T16:09:28.368Z,6.15
2022-11-27T16:14:30.072Z,6.20
2022-11-27T16:19:31.631Z,6.28
2022-11-27T16:24:33.266Z,6.21
2022-11-27T16:29:34.840Z,6.23
2022-11-27T16:34:37.350Z,6.22
2022-11-27T16:39:38.922Z,6.21
2022-11-27T16:44:43.200Z,6.26
2022-11-27T16:49:50.289Z,6.27
2022-11-27T16:54:54.987Z,6.29
2022-11-27T16:59:58.226Z,6.28
2022-11-27T17:05:00.285Z,6.38
2022-11-27T17:10:02.790Z,6.38
2022-11-27T17:15:04.923Z,6.35
2022-11-27T17:20:07.689Z,6.35
2022-11-27T17:25:11.188Z,6.30
2022-11-27T17:30:16.015Z,6.32
2022-11-27T17:35:17.649Z,6.29
2022-11-27T17:40:19.286Z,6.35
2022-11-27T17:45:21.236Z,6.32
2022-11-27T17:50:22.889Z,6.35
2022-11-27T17:55:24.581Z,6.37
2022-11-27T18:00:26.117Z,6.31
2022-11-27T18:05:28.403Z,6.35
2022-11-27T18:10:30.165Z,6.34
2022-11-27T18:15:34.164Z,6.29
2022-11-27T18:20:36.323Z,6.28
2022-11-27T18:25:46.078Z,6.35
2022-11-27T18:30:50.386Z,6.28
2022-11-27T18:35:52.864Z,6.33
2022-11-27T18:40:54.513Z,6.35
2022-11-27T18:45:56.067Z,6.31
2022-11-27T18:51:03.154Z,6.21
2022-11-27T18:56:07.577Z,6.15
2022-11-27T19:01:11.748Z,6.11
2022-11-27T19:06:14.863Z,6.03
2022-11-27T19:11:22.813Z,5.96
2022-11-27T19:16:28.209Z,5.86
2022-11-27T19:21:31.522Z,5.80
2022-11-27T19:26:37.796Z,5.78
2022-11-27T19:31:39.811Z,5.75
2022-11-27T19:36:42.868Z,5.74
2022-11-27T19:41:45.487Z,5.74
2022-11-27T19:46:48.628Z,5.67
2022-11-27T19:51:50.270Z,5.69
2022-11-27T19:56:53.464Z,5.66
2022-11-27T20:01:55.429Z,5.65
2022-11-27T20:07:02.302Z,5.63
2022-11-27T20:12:05.224Z,5.57
2022-11-27T20:17:10.917Z,5.56
2022-11-27T20:22:14.617Z,5.57
2022-11-27T20:27:47.248Z,5.58
2022-11-27T20:32:48.974Z,5.58
2022-11-27T20:37:50.515Z,5.55
2022-11-27T20:42:52.350Z,5.50
2022-11-27T20:47:53.894Z,5.51
2022-11-27T20:52:55.444Z,5.47
2022-11-27T20:57:57.197Z,5.46
2022-11-27T21:02:58.798Z,5.44
2022-11-27T21:08:03.767Z,5.44
2022-11-27T21:13:05.493Z,5.38
2022-11-27T21:18:08.107Z,5.37
2022-11-27T21:23:09.736Z,5.34
2022-11-27T21:28:11.387Z,5.37
2022-11-27T21:33:12.910Z,5.37
2022-11-27T21:38:14.542Z,5.39
2022-11-27T21:43:16.427Z,5.41
2022-11-27T21:48:18.500Z,5.40
2022-11-27T21:53:20.204Z,5.40
2022-11-27T21:58:24.296Z,5.42
2022-11-27T22:03:25.936Z,5.42
2022-11-27T22:08:46.140Z,5.48
2022-11-27T22:14:01.382Z,5.48
2022-11-27T22:19:03.737Z,5.49
2022-11-27T22:24:05.619Z,5.48
2022-11-27T22:29:07.196Z,5.50
2022-11-27T22:34:09.195Z,5.52
2022-11-27T22:39:11.974Z,5.52
2022-11-27T22:44:19.376Z,5.51
2022-11-27T22:49:21.098Z,5.55
2022-11-27T22:54:24.456Z,5.55
2022-11-27T22:59:34.305Z,5.55
2022-11-27T23:04:39.194Z,5.57
2022-11-27T23:09:41.013Z,5.60
2022-11-27T23:14:42.861Z,5.70
2022-11-27T23:19:44.649Z,5.76
2022-11-27T23:24:46.303Z,5.77
2022-11-27T23:29:47.947Z,5.89
2022-11-27T23:34:49.493Z,5.93
2022-11-27T23:39:50.999Z,5.94
2022-11-27T23:44:52.598Z,5.95
2022-11-27T23:49:54.406Z,6.06
2022-11-27T23:54:56.184Z,6.08
